Time;durP1;ratioP1;P1;durP2;ratioP2;P2;SDS_P1;SDS_P2;PMS_P1;PMS_P2;Temp;Humidity;BMP_temperature;BMP_pressure;BME280_temperature;BME280_humidity;BME280_pressure;Samples;Min_cycle;Max_cycle;Signal;HPM_P1;HPM_P2
2020/04/02 00:02:43;;;;;;;15.3;10.3;;;;;;;0.96;67.53418;935.0792;;;;
2020/04/02 00:05:08;;;;;;;14.8;11.3;;;;;;;0.84;68.08496;935.1033;;;;
2020/04/02 00:07:35;;;;;;;13.9;10.7;;;;;;;0.84;68.14258;935.0887;;;;
2020/04/02 00:09:58;;;;;;;14.8;11.3;;;;;;;0.76;68.62012;934.9482;;;;
2020/04/02 00:12:31;;;;;;;16.1;11;;;;;;;0.75;68.66309;935.0372;;;;
2020/04/02 00:14:56;;;;;;;16.5;12.1;;;;;;;0.72;68.88086;935.0536;;;;
2020/04/02 00:17:22;;;;;;;17.2;12.8;;;;;;;0.79;68.66895;934.9498;;;;
2020/04/02 00:19:47;;;;;;;18.8;12.6;;;;;;;0.79;68.68066;934.9092;;;;
2020/04/02 00:22:12;;;;;;;17.1;12;;;;;;;0.86;68.21094;935.0226;;;;
2020/04/02 00:24:37;;;;;;;17.5;12.2;;;;;;;0.81;68.26855;934.8969;;;;
2020/04/02 00:27:02;;;;;;;17.6;11.8;;;;;;;0.8;68.3584;934.9966;;;;
2020/04/02 00:29:27;;;;;;;14;10.8;;;;;;;0.65;68.70117;934.9514;;;;
2020/04/02 00:31:52;;;;;;;14.1;10.6;;;;;;;0.52;69.30566;934.9316;;;;
2020/04/02 00:34:17;;;;;;;13;10.2;;;;;;;0.61;68.92969;934.8918;;;;
2020/04/02 00:36:42;;;;;;;17.2;11.2;;;;;;;0.67;68.65039;934.9132;;;;
2020/04/02 00:39:08;;;;;;;17.4;12.1;;;;;;;0.63;68.86621;934.884;;;;
2020/04/02 00:41:33;;;;;;;15.6;11.4;;;;;;;0.64;69.15723;934.8631;;;;
2020/04/02 00:43:58;;;;;;;14.6;10.8;;;;;;;0.54;69.7002;934.8395;;;;
2020/04/02 00:46:24;;;;;;;17.7;12;;;;;;;0.54;69.55566;934.8872;;;;
2020/04/02 00:48:49;;;;;;;16.3;12;;;;;;;0.48;69.65625;934.8643;;;;
2020/04/02 00:51:14;;;;;;;13.2;10.2;;;;;;;0.41;69.94727;934.8867;;;;
2020/04/02 00:53:39;;;;;;;13.8;9.7;;;;;;;0.15;71.00586;934.8834;;;;
2020/04/02 00:56:04;;;;;;;13.9;10.8;;;;;;;0.01;71.88477;934.8989;;;;
2020/04/02 00:58:29;;;;;;;13.1;9.9;;;;;;;-0.06;72.29492;934.8045;;;;
2020/04/02 01:00:54;;;;;;;13.2;9.5;;;;;;;-0.13;72.69434;934.8484;;;;
2020/04/02 01:04:41;;;;;;;12.5;9.9;;;;;;;-0.12;72.63184;934.8203;;;;
2020/04/02 01:07:06;;;;;;;12.2;10;;;;;;;-0.08;72.60352;934.8162;;;;
2020/04/02 01:09:31;;;;;;;12.6;9.4;;;;;;;-0.08;72.71582;934.7773;;;;
2020/04/02 01:11:57;;;;;;;13;10;;;;;;;-0.04;72.64453;934.6852;;;;
2020/04/02 01:14:22;;;;;;;12.9;9.4;;;;;;;0.04;72.13477;934.6592;;;;
2020/04/02 01:16:47;;;;;;;12.1;9.6;;;;;;;0.2;71.45898;934.6749;;;;
2020/04/02 01:19:12;;;;;;;12.6;9.7;;;;;;;0.25;71.01074;934.6174;;;;
2020/04/02 01:21:37;;;;;;;12.3;9.3;;;;;;;0.25;70.82324;934.6425;;;;
2020/04/02 01:24:02;;;;;;;13;9.8;;;;;;;0.29;70.71777;934.647;;;;
2020/04/02 01:26:28;;;;;;;13.1;10.3;;;;;;;0.37;70.30664;934.6565;;;;
2020/04/02 01:28:53;;;;;;;21.5;11.9;;;;;;;0.34;70.33691;934.6774;;;;
2020/04/02 01:31:18;;;;;;;16.1;11.2;;;;;;;0.33;70.38965;934.5829;;;;
2020/04/02 01:33:43;;;;;;;14.4;11.1;;;;;;;0.28;70.40234;934.6795;;;;
2020/04/02 01:36:08;;;;;;;12.9;9.8;;;;;;;0.24;70.65332;934.6749;;;;
2020/04/02 01:38:33;;;;;;;14;9.9;;;;;;;0.14;71.22656;934.6525;;;;
2020/04/02 01:40:58;;;;;;;12.3;9.4;;;;;;;0.18;71.18848;934.6641;;;;
2020/04/02 01:43:33;;;;;;;11.5;9.3;;;;;;;0.22;70.81738;934.6841;;;;
2020/04/02 01:45:59;;;;;;;14.3;9.2;;;;;;;0.19;71.08984;934.7481;;;;
2020/04/02 01:48:23;;;;;;;12.8;9.9;;;;;;;0.21;71.11621;934.593;;;;
2020/04/02 01:50:48;;;;;;;14;10.1;;;;;;;0.18;71.33301;934.5927;;;;
2020/04/02 01:53:14;;;;;;;13.2;9.7;;;;;;;0.16;71.35254;934.5066;;;;
2020/04/02 01:55:38;;;;;;;13.2;9.9;;;;;;;0.22;71.32813;934.5305;;;;
2020/04/02 01:58:04;;;;;;;12.3;9.4;;;;;;;0.33;70.80176;934.4302;;;;
2020/04/02 02:00:29;;;;;;;13.4;9.8;;;;;;;0.32;70.66699;934.5856;;;;
2020/04/02 02:02:54;;;;;;;13.7;10.5;;;;;;;0.17;71.01953;934.5934;;;;
2020/04/02 02:05:19;;;;;;;11.7;9.8;;;;;;;0.12;71.2666;934.5606;;;;
2020/04/02 02:07:44;;;;;;;13.6;10.1;;;;;;;-0.05;71.97266;934.4952;;;;
2020/04/02 02:10:09;;;;;;;11.7;9.4;;;;;;;-0.11;72.54297;934.4612;;;;
2020/04/02 02:12:34;;;;;;;12.9;9.8;;;;;;;-0.06;72.38379;934.4994;;;;
2020/04/02 02:15:00;;;;;;;13.2;9.7;;;;;;;-0.19;72.78516;934.5269;;;;
2020/04/02 02:17:27;;;;;;;12.3;9.5;;;;;;;-0.21;72.72656;934.4928;;;;
2020/04/02 02:19:52;;;;;;;11.7;9.2;;;;;;;-0.18;72.4209;934.5062;;;;
2020/04/02 02:22:17;;;;;;;13.8;10.3;;;;;;;-0.22;72.56836;934.4564;;;;
2020/04/02 02:24:42;;;;;;;12.7;9.7;;;;;;;-0.34;72.95898;934.4339;;;;
2020/04/02 02:27:07;;;;;;;13.8;10;;;;;;;-0.23;72.89941;934.4645;;;;
2020/04/02 02:29:32;;;;;;;12.9;9.6;;;;;;;-0.28;73.43848;934.3929;;;;
2020/04/02 02:31:57;;;;;;;12.4;9.9;;;;;;;-0.16;72.81152;934.4052;;;;
2020/04/02 02:34:22;;;;;;;13.4;9.6;;;;;;;-0.09;72.3916;934.4006;;;;
2020/04/02 02:36:49;;;;;;;12.6;9.7;;;;;;;-0.23;72.77832;934.3856;;;;
2020/04/02 02:39:14;;;;;;;13.5;9.9;;;;;;;-0.25;72.84082;934.4119;;;;
2020/04/02 02:41:39;;;;;;;12.7;9.5;;;;;;;-0.27;72.7168;934.2877;;;;
2020/04/02 02:44:04;;;;;;;13.5;9.5;;;;;;;-0.4;73.39453;934.3755;;;;
2020/04/02 02:46:29;;;;;;;12.6;9.6;;;;;;;-0.2;72.79492;934.3203;;;;
2020/04/02 02:48:54;;;;;;;12.4;9.5;;;;;;;-0.12;72.40723;934.4045;;;;
2020/04/02 02:51:19;;;;;;;13.6;9.9;;;;;;;-0.21;72.94922;934.3948;;;;
2020/04/02 02:53:45;;;;;;;11.5;9.3;;;;;;;-0.1;72.26563;934.3765;;;;
2020/04/02 02:56:10;;;;;;;13.5;10;;;;;;;-0.39;73.19727;934.3343;;;;
2020/04/02 02:58:35;;;;;;;12.6;9.8;;;;;;;-0.27;72.89355;934.2828;;;;
2020/04/02 03:01:00;;;;;;;11.8;9.7;;;;;;;-0.26;72.61621;934.2378;;;;
2020/04/02 03:03:25;;;;;;;14;9.8;;;;;;;-0.29;72.51172;934.2805;;;;
2020/04/02 03:05:50;;;;;;;11.6;9.3;;;;;;;-0.42;73.28027;934.2565;;;;
2020/04/02 03:08:28;;;;;;;13.6;9.7;;;;;;;-0.47;73.56055;934.282;;;;
2020/04/02 03:10:53;;;;;;;12.3;9.7;;;;;;;-0.56;73.93555;934.2155;;;;
2020/04/02 03:13:18;;;;;;;12.6;9.5;;;;;;;-0.53;74.00684;934.2699;;;;
2020/04/02 03:15:43;;;;;;;13.4;9.9;;;;;;;-0.42;73.55859;934.2893;;;;
2020/04/02 03:18:08;;;;;;;12.3;9.4;;;;;;;-0.45;73.6875;934.2717;;;;
2020/04/02 03:20:33;;;;;;;13.7;9.8;;;;;;;-0.38;73.22168;934.1392;;;;
2020/04/02 03:22:58;;;;;;;11.7;9.3;;;;;;;-0.37;73.32324;934.2708;;;;
2020/04/02 03:25:23;;;;;;;14.1;10;;;;;;;-0.31;73.07617;934.2303;;;;
2020/04/02 03:27:49;;;;;;;14.8;9.8;;;;;;;-0.42;73.31348;934.2473;;;;
2020/04/02 03:30:14;;;;;;;13.8;9.4;;;;;;;-0.47;73.73926;934.2891;;;;
2020/04/02 03:32:50;;;;;;;12.6;9.4;;;;;;;-0.46;73.69531;934.2299;;;;
2020/04/02 03:35:11;;;;;;;12.6;9.5;;;;;;;-0.48;73.76074;934.3043;;;;
2020/04/02 03:37:40;;;;;;;15.5;10.5;;;;;;;-0.36;73.19141;934.2534;;;;
2020/04/02 03:39:55;;;;;;;18.7;11.6;;;;;;;-0.3;72.90137;934.3279;;;;
2020/04/02 03:42:20;;;;;;;17.3;11.4;;;;;;;-0.26;72.76172;934.2269;;;;
2020/04/02 03:44:45;;;;;;;16.3;10.4;;;;;;;-0.21;72.80371;934.2416;;;;
2020/04/02 03:47:10;;;;;;;14.9;9.6;;;;;;;-0.22;72.45898;934.3039;;;;
2020/04/02 03:49:35;;;;;;;12.7;9.8;;;;;;;-0.22;72.68164;934.2617;;;;
2020/04/02 03:52:00;;;;;;;14.1;9.8;;;;;;;-0.28;72.81543;934.2809;;;;
2020/04/02 03:54:25;;;;;;;11.9;9;;;;;;;-0.36;73.10059;934.1978;;;;
2020/04/02 03:56:51;;;;;;;12;9;;;;;;;-0.41;73.33789;934.2117;;;;
2020/04/02 03:59:16;;;;;;;12.8;9.2;;;;;;;-0.33;73.05078;934.2012;;;;
2020/04/02 04:02:30;;;;;;;16.6;9.4;;;;;;;-0.27;72.88379;934.2605;;;;
2020/04/02 04:04:55;;;;;;;16;10.2;;;;;;;-0.2;72.42676;934.2232;;;;
2020/04/02 04:07:20;;;;;;;13;8.9;;;;;;;-0.14;72.11523;934.2606;;;;
2020/04/02 04:09:45;;;;;;;15.8;9.2;;;;;;;-0.22;72.1582;934.2955;;;;
2020/04/02 04:12:10;;;;;;;20.7;9.6;;;;;;;-0.21;71.83594;934.2885;;;;
2020/04/02 04:14:36;;;;;;;15.8;9.5;;;;;;;-0.4;72.82715;934.3027;;;;
2020/04/02 04:17:01;;;;;;;17.6;9.5;;;;;;;-0.65;74.1416;934.3005;;;;
2020/04/02 04:19:26;;;;;;;12.8;9.3;;;;;;;-0.62;74.17969;934.2978;;;;
2020/04/02 04:21:51;;;;;;;15.4;10.2;;;;;;;-0.69;74.48828;934.2897;;;;
2020/04/02 04:24:16;;;;;;;18.9;10.4;;;;;;;-0.82;75.0459;934.2831;;;;
2020/04/02 04:26:41;;;;;;;13.7;9.4;;;;;;;-0.78;75.0293;934.2875;;;;
2020/04/02 04:29:06;;;;;;;19.6;9.7;;;;;;;-0.68;74.58203;934.2606;;;;
2020/04/02 04:31:31;;;;;;;21.7;10.2;;;;;;;-0.73;74.83789;934.3114;;;;
2020/04/02 04:33:56;;;;;;;17.4;10.3;;;;;;;-0.84;75.34082;934.3109;;;;
2020/04/02 04:36:22;;;;;;;16.6;10.3;;;;;;;-0.8;75.25977;934.2836;;;;
2020/04/02 04:38:47;;;;;;;15.2;10.2;;;;;;;-0.67;74.61719;934.2808;;;;
2020/04/02 04:41:12;;;;;;;13.4;10.2;;;;;;;-0.64;74.40918;934.3139;;;;
2020/04/02 04:43:37;;;;;;;17.1;10.3;;;;;;;-0.78;75.11914;934.3439;;;;
2020/04/02 04:46:02;;;;;;;33.6;12.3;;;;;;;-0.82;75.64453;934.3619;;;;
2020/04/02 04:48:27;;;;;;;21;11.9;;;;;;;-0.64;75.05566;934.3563;;;;
2020/04/02 04:50:52;;;;;;;22.4;13.4;;;;;;;-0.52;74.41992;934.3921;;;;
2020/04/02 04:53:17;;;;;;;22.8;13.9;;;;;;;-0.48;73.85938;934.3517;;;;
2020/04/02 04:55:43;;;;;;;26;14.3;;;;;;;-0.54;74.1709;934.3108;;;;
2020/04/02 04:58:08;;;;;;;22;13.6;;;;;;;-0.65;74.47559;934.3239;;;;
2020/04/02 05:00:33;;;;;;;22.8;12.5;;;;;;;-0.61;74.37109;934.3279;;;;
2020/04/02 05:02:58;;;;;;;30;16.5;;;;;;;-0.62;74.22461;934.2603;;;;
2020/04/02 05:05:23;;;;;;;29.2;19.2;;;;;;;-0.59;74.27344;934.3619;;;;
2020/04/02 05:07:48;;;;;;;25.3;14.9;;;;;;;-0.53;74.18457;934.33;;;;
2020/04/02 05:10:13;;;;;;;20.1;11;;;;;;;-0.58;74.25293;934.3675;;;;
2020/04/02 05:12:38;;;;;;;18;10.6;;;;;;;-0.58;74.27539;934.4207;;;;
2020/04/02 05:15:03;;;;;;;19.7;10.9;;;;;;;-0.58;74.03027;934.4012;;;;
2020/04/02 05:17:29;;;;;;;25.8;10.7;;;;;;;-0.67;74.41504;934.3181;;;;
2020/04/02 05:19:54;;;;;;;19.8;10.5;;;;;;;-0.66;74.49414;934.3911;;;;
2020/04/02 05:22:19;;;;;;;18.8;10.6;;;;;;;-0.56;74.02246;934.2849;;;;
2020/04/02 05:24:44;;;;;;;22.5;11;;;;;;;-0.61;74.79492;934.3961;;;;
2020/04/02 05:27:09;;;;;;;25.2;11.9;;;;;;;-0.48;74.27246;934.3684;;;;
2020/04/02 05:29:34;;;;;;;29.6;12.8;;;;;;;-0.36;73.81445;934.4467;;;;
2020/04/02 05:32:00;;;;;;;28.4;12.9;;;;;;;-0.13;72.96289;934.4841;;;;
2020/04/02 05:34:25;;;;;;;30.8;14.7;;;;;;;-0.05;72.15137;934.4106;;;;
2020/04/02 05:36:50;;;;;;;28.6;15;;;;;;;-0.08;72.17969;934.4578;;;;
2020/04/02 05:39:15;;;;;;;28.4;16.8;;;;;;;-0.25;72.43066;934.4394;;;;
2020/04/02 05:41:40;;;;;;;34;19.7;;;;;;;-0.34;74.59473;934.4808;;;;
2020/04/02 05:44:05;;;;;;;27.8;18.2;;;;;;;-0.14;73.5625;934.3725;;;;
2020/04/02 05:46:30;;;;;;;29.9;17.2;;;;;;;0.11;72.71387;934.409;;;;
2020/04/02 05:48:55;;;;;;;32;15.7;;;;;;;0.43;71.51172;934.4176;;;;
2020/04/02 05:51:20;;;;;;;25.4;13.2;;;;;;;0.81;70.19043;934.416;;;;
2020/04/02 05:53:45;;;;;;;19.7;12;;;;;;;1.05;68.90332;934.4052;;;;
2020/04/02 05:56:11;;;;;;;19.2;10.5;;;;;;;1.17;68.55371;934.4357;;;;
2020/04/02 05:58:36;;;;;;;19.9;11;;;;;;;1.48;67.78711;934.4416;;;;
2020/04/02 06:01:02;;;;;;;19.3;8.9;;;;;;;2.76;63.5957;934.4164;;;;
2020/04/02 06:03:26;;;;;;;18.8;8.5;;;;;;;3.71;59.18652;934.4255;;;;
2020/04/02 06:05:51;;;;;;;17.7;10.6;;;;;;;4.99;56.41113;934.3178;;;;
2020/04/02 06:08:16;;;;;;;19.3;9.6;;;;;;;5.69;54.12207;934.3497;;;;
2020/04/02 06:10:42;;;;;;;20;8.6;;;;;;;6.72;50.59766;934.3571;;;;
2020/04/02 06:13:07;;;;;;;10.4;6.3;;;;;;;7.06;47.68164;934.3482;;;;
2020/04/02 06:15:32;;;;;;;11.3;6.5;;;;;;;7.06;47.60156;934.243;;;;
2020/04/02 06:17:57;;;;;;;10.7;6.1;;;;;;;7.79;46.16406;934.2989;;;;
2020/04/02 06:20:22;;;;;;;16.7;6.7;;;;;;;9.05;43.27246;934.2839;;;;
2020/04/02 06:22:47;;;;;;;9;6;;;;;;;9.21;42.51465;934.1878;;;;
2020/04/02 06:25:12;;;;;;;8.2;5.3;;;;;;;9.94;40.99023;934.1186;;;;
2020/04/02 06:27:37;;;;;;;9.3;6.1;;;;;;;9.99;39.91016;934.1824;;;;
2020/04/02 06:30:03;;;;;;;19.3;9.5;;;;;;;10.66;40.06445;934.2078;;;;
2020/04/02 06:32:28;;;;;;;20.1;8.6;;;;;;;11.24;37.4541;934.1736;;;;
2020/04/02 06:34:53;;;;;;;33.8;14.4;;;;;;;10.82;38.11426;934.1303;;;;
2020/04/02 06:37:18;;;;;;;21.3;9.6;;;;;;;11.86;36.94629;934.1469;;;;
2020/04/02 06:39:43;;;;;;;44;16.5;;;;;;;12.27;34.71094;934.0672;;;;
2020/04/02 06:42:08;;;;;;;27.8;13.8;;;;;;;11.57;36.16602;934.1386;;;;
2020/04/02 06:44:33;;;;;;;16.2;9.1;;;;;;;10.2;38.5957;934.0922;;;;
2020/04/02 06:46:58;;;;;;;13.1;7.2;;;;;;;10.7;37.50977;934.1203;;;;
2020/04/02 06:49:24;;;;;;;12.4;8.4;;;;;;;10.14;38.30469;934.103;;;;
2020/04/02 06:51:49;;;;;;;13.7;8.3;;;;;;;9.86;38.97559;934.1198;;;;
2020/04/02 06:54:14;;;;;;;12.7;7.2;;;;;;;9.71;39.63477;934.1489;;;;
2020/04/02 06:56:39;;;;;;;19.4;6.8;;;;;;;10.42;38.50195;934.0715;;;;
2020/04/02 06:59:04;;;;;;;12.1;6.2;;;;;;;10.19;38.86816;934.0906;;;;
2020/04/02 07:01:30;;;;;;;8.5;5.4;;;;;;;9.56;39.03906;934.0348;;;;
2020/04/02 07:03:55;;;;;;;14.3;5.8;;;;;;;9.74;38.88477;934.0783;;;;
2020/04/02 07:06:36;;;;;;;10.1;5.6;;;;;;;9.51;39.02441;934.0003;;;;
2020/04/02 07:08:45;;;;;;;13.2;6.8;;;;;;;10.4;37.72363;933.986;;;;
2020/04/02 07:11:11;;;;;;;10.2;5;;;;;;;11.17;36.09766;933.9246;;;;
2020/04/02 07:13:36;;;;;;;9.5;5.7;;;;;;;10.52;36.98047;933.954;;;;
2020/04/02 07:16:01;;;;;;;13.2;6;;;;;;;11.02;36.69141;934.0034;;;;
2020/04/02 07:18:26;;;;;;;22.3;6.4;;;;;;;12.26;35.13477;933.9387;;;;
2020/04/02 07:20:52;;;;;;;11.7;5.5;;;;;;;12.88;33.47363;933.8084;;;;
2020/04/02 07:23:18;;;;;;;10.6;5;;;;;;;12.65;33.04297;933.8223;;;;
2020/04/02 07:25:43;;;;;;;15.2;6.6;;;;;;;11.83;34.40137;933.7784;;;;
2020/04/02 07:28:08;;;;;;;9;5.2;;;;;;;13.68;32.82324;933.6202;;;;
2020/04/02 07:30:33;;;;;;;8;4.7;;;;;;;14.56;29.8584;933.6866;;;;
2020/04/02 07:32:58;;;;;;;10.1;4.8;;;;;;;14.8;30.17383;933.662;;;;
2020/04/02 07:35:23;;;;;;;8.4;4.4;;;;;;;14.59;29.7334;933.6381;;;;
2020/04/02 07:37:48;;;;;;;6.2;4.3;;;;;;;16.48;27.25781;933.6387;;;;
2020/04/02 07:40:13;;;;;;;5.7;4.1;;;;;;;18.17;24.98047;933.5934;;;;
2020/04/02 07:42:39;;;;;;;6.7;4.2;;;;;;;17.65;24.18555;933.5528;;;;
2020/04/02 07:45:04;;;;;;;6;4;;;;;;;17.21;25.04199;933.5314;;;;
2020/04/02 07:47:29;;;;;;;7.4;4.2;;;;;;;18.41;23.30859;933.5031;;;;
2020/04/02 07:49:54;;;;;;;7.7;4.1;;;;;;;17.46;23.39746;933.455;;;;
2020/04/02 07:52:19;;;;;;;10.3;4.4;;;;;;;15.89;25.68359;933.5025;;;;
2020/04/02 07:54:44;;;;;;;6.8;3.9;;;;;;;17.18;24.34473;933.4041;;;;
2020/04/02 07:57:10;;;;;;;7.7;4;;;;;;;17.38;24.44922;933.3851;;;;
2020/04/02 07:59:35;;;;;;;8.1;4.5;;;;;;;18.46;22.89258;933.3923;;;;
2020/04/02 08:02:00;;;;;;;7.6;4.5;;;;;;;19.23;22.79297;933.373;;;;
2020/04/02 08:04:25;;;;;;;9.8;4.6;;;;;;;20.11;22.72168;933.3733;;;;
2020/04/02 08:06:50;;;;;;;7.3;4.1;;;;;;;22.14;19.42578;933.3392;;;;
2020/04/02 08:09:15;;;;;;;5.9;3.8;;;;;;;22.76;17.85645;933.3223;;;;
2020/04/02 08:11:40;;;;;;;7;4;;;;;;;23.2;18.67383;933.3749;;;;
2020/04/02 08:14:05;;;;;;;5.7;3.6;;;;;;;21.67;18.66797;933.2916;;;;
2020/04/02 08:16:31;;;;;;;5.1;4;;;;;;;21.9;20.4707;933.3163;;;;
2020/04/02 08:18:56;;;;;;;6.3;3.8;;;;;;;22.42;19.34473;933.3043;;;;
2020/04/02 08:21:21;;;;;;;5.1;4.1;;;;;;;23.15;18.92969;933.3181;;;;
2020/04/02 08:23:46;;;;;;;5.5;3.8;;;;;;;23.81;18.3457;933.3055;;;;
2020/04/02 08:26:11;;;;;;;5.9;3.9;;;;;;;23.85;17.05273;933.2905;;;;
2020/04/02 08:28:36;;;;;;;7.7;4;;;;;;;21.49;21.29395;933.2154;;;;
2020/04/02 08:31:01;;;;;;;5.3;3.7;;;;;;;21.35;20.50391;933.1906;;;;
2020/04/02 08:33:26;;;;;;;5.1;4.2;;;;;;;22.09;19.14258;933.2302;;;;
2020/04/02 08:35:51;;;;;;;5;4.1;;;;;;;23.84;18.46484;933.2603;;;;
2020/04/02 08:38:16;;;;;;;6.5;4.2;;;;;;;23.57;18.79492;933.2227;;;;
2020/04/02 08:40:42;;;;;;;8.1;4.6;;;;;;;24.07;18.23828;933.189;;;;
2020/04/02 08:43:07;;;;;;;6.9;4.6;;;;;;;24.38;17.78027;933.0896;;;;
2020/04/02 08:45:32;;;;;;;7.2;4.9;;;;;;;23.91;17.20801;933.1283;;;;
2020/04/02 08:47:59;;;;;;;7.2;4.8;;;;;;;24.2;17.96191;933.0745;;;;
2020/04/02 08:50:24;;;;;;;7.5;5.6;;;;;;;22.45;17.78613;933.1216;;;;
2020/04/02 08:52:50;;;;;;;7.6;6;;;;;;;23.93;17.00879;933.0792;;;;
2020/04/02 08:55:15;;;;;;;7.2;5.6;;;;;;;24.58;16.75098;933.0662;;;;
2020/04/02 08:57:40;;;;;;;9.5;6.1;;;;;;;25;16.40137;933.0486;;;;
2020/04/02 09:00:05;;;;;;;9.1;6.5;;;;;;;24.96;16.94238;933.0165;;;;
2020/04/02 09:02:30;;;;;;;8.6;6.1;;;;;;;25.25;16.5166;932.9464;;;;
2020/04/02 09:04:55;;;;;;;7.4;6.2;;;;;;;24.79;16.86523;932.9358;;;;
2020/04/02 09:07:20;;;;;;;7.2;5.6;;;;;;;24.9;17.0459;932.8798;;;;
2020/04/02 09:09:45;;;;;;;6.3;5.7;;;;;;;24.83;17.04297;932.8922;;;;
2020/04/02 09:12:20;;;;;;;7.3;6.1;;;;;;;24.41;17.14551;932.8439;;;;
2020/04/02 09:14:45;;;;;;;8;7.1;;;;;;;23.86;18.01855;932.8293;;;;
2020/04/02 09:17:10;;;;;;;9;7.1;;;;;;;23.43;18.54199;932.8876;;;;
2020/04/02 09:19:35;;;;;;;9.6;7.2;;;;;;;22.85;18.64648;932.7572;;;;
2020/04/02 09:22:00;;;;;;;9.6;8.1;;;;;;;21.76;19.70215;932.7977;;;;
2020/04/02 09:24:26;;;;;;;9.8;7.6;;;;;;;21.41;20.17871;932.8122;;;;
2020/04/02 09:26:51;;;;;;;10.3;7.5;;;;;;;21.13;20.71582;932.7607;;;;
2020/04/02 09:29:16;;;;;;;11;7.9;;;;;;;21;21.29395;932.7283;;;;
2020/04/02 09:31:41;;;;;;;9.9;8.2;;;;;;;21.56;20.11523;932.6169;;;;
2020/04/02 09:34:06;;;;;;;10.9;7.6;;;;;;;21.99;21.17773;932.6128;;;;
2020/04/02 09:36:31;;;;;;;10.9;7.7;;;;;;;21.6;19.8125;932.57;;;;
2020/04/02 09:38:56;;;;;;;9.8;8;;;;;;;21.5;20.13574;932.5295;;;;
2020/04/02 09:41:22;;;;;;;11;8.5;;;;;;;20.09;21.99707;932.5003;;;;
2020/04/02 09:43:47;;;;;;;10.2;8.7;;;;;;;19.9;22.09277;932.4826;;;;
2020/04/02 09:46:12;;;;;;;9.5;8.2;;;;;;;20.27;22.28613;932.4163;;;;
2020/04/02 09:48:37;;;;;;;9.5;8.5;;;;;;;20.08;22.42871;932.3963;;;;
2020/04/02 09:51:02;;;;;;;10.7;8.6;;;;;;;20.37;23.30762;932.2944;;;;
2020/04/02 09:53:28;;;;;;;9.5;8.5;;;;;;;20.64;22.00195;932.3333;;;;
2020/04/02 09:55:53;;;;;;;9.4;8.2;;;;;;;21.03;21.83301;932.3187;;;;
2020/04/02 09:58:18;;;;;;;12.7;8.4;;;;;;;20.63;21.07813;932.2505;;;;
2020/04/02 10:00:44;;;;;;;11.9;8.1;;;;;;;20.8;22.02148;932.2892;;;;
2020/04/02 10:03:08;;;;;;;10.8;8.7;;;;;;;20.45;21.66504;932.2312;;;;
2020/04/02 10:05:33;;;;;;;10;8.2;;;;;;;19.97;22.56348;932.1987;;;;
2020/04/02 10:07:58;;;;;;;9.6;8.4;;;;;;;20.29;23.16309;932.1552;;;;
2020/04/02 10:10:24;;;;;;;10.1;8.8;;;;;;;19.89;22.85059;932.1295;;;;
2020/04/02 10:12:49;;;;;;;10.6;9.1;;;;;;;19.31;24.38184;932.1351;;;;
2020/04/02 10:15:15;;;;;;;10.8;8.9;;;;;;;19.94;23.9375;932.0667;;;;
2020/04/02 10:17:40;;;;;;;10.7;9.6;;;;;;;19.92;23.90234;932.0317;;;;
2020/04/02 10:20:05;;;;;;;14.2;9.7;;;;;;;19.72;23.23828;932.0659;;;;
2020/04/02 10:22:30;;;;;;;11.4;9.6;;;;;;;19.56;25.4209;932.01;;;;
2020/04/02 10:24:55;;;;;;;14.4;10.4;;;;;;;19.18;24.7002;931.9787;;;;
2020/04/02 10:27:20;;;;;;;11.1;9.8;;;;;;;19.22;26.30957;932.017;;;;
2020/04/02 10:29:45;;;;;;;11.1;9.9;;;;;;;19.4;25.5166;931.9263;;;;
2020/04/02 10:32:10;;;;;;;12.1;9.6;;;;;;;18.64;25.70508;931.845;;;;
2020/04/02 10:34:36;;;;;;;11.7;9.8;;;;;;;18.6;24.95898;931.9881;;;;
2020/04/02 10:37:01;;;;;;;11.6;9.8;;;;;;;18.55;25.93359;931.9356;;;;
2020/04/02 10:39:26;;;;;;;11.1;9.9;;;;;;;19.65;23.74805;931.907;;;;
2020/04/02 10:41:51;;;;;;;11.7;9.5;;;;;;;20.31;23.08301;931.8543;;;;
2020/04/02 10:44:16;;;;;;;10.7;9.1;;;;;;;20.31;23.64355;931.7719;;;;
2020/04/02 10:46:53;;;;;;;12.7;9.2;;;;;;;20.56;23.9248;931.8348;;;;
2020/04/02 10:49:09;;;;;;;11.3;9.5;;;;;;;20.21;24.53613;931.8362;;;;
2020/04/02 10:51:38;;;;;;;12.1;10.1;;;;;;;20.12;24.37988;931.7764;;;;
2020/04/02 10:53:59;;;;;;;13;9.5;;;;;;;19.27;25.70801;931.79;;;;
2020/04/02 10:56:22;;;;;;;13.7;9.8;;;;;;;19.12;25.36133;931.7135;;;;
2020/04/02 10:58:47;;;;;;;11.5;10.2;;;;;;;19.54;25.52539;931.6811;;;;
2020/04/02 11:01:12;;;;;;;12.5;10.3;;;;;;;18.84;26.58984;931.6831;;;;
2020/04/02 11:03:37;;;;;;;13.9;10.4;;;;;;;18.2;27.67871;931.6729;;;;
2020/04/02 11:06:02;;;;;;;12.1;10.6;;;;;;;19.48;25.47461;931.6111;;;;
2020/04/02 11:08:27;;;;;;;12.6;10.6;;;;;;;20.49;24.23633;931.6003;;;;
2020/04/02 11:10:52;;;;;;;13.3;10.5;;;;;;;20.66;24.76074;931.5988;;;;
2020/04/02 11:13:17;;;;;;;12.4;10.3;;;;;;;20.29;24.86719;931.5228;;;;
2020/04/02 11:15:42;;;;;;;12.8;10.5;;;;;;;19.66;26.12598;931.5352;;;;
2020/04/02 11:18:07;;;;;;;12.2;10.3;;;;;;;19.71;25.44141;931.4838;;;;
2020/04/02 11:20:32;;;;;;;14.7;11;;;;;;;20.29;25.18262;931.413;;;;
2020/04/02 11:22:58;;;;;;;13.7;10.7;;;;;;;19.67;25.55664;931.3915;;;;
2020/04/02 11:25:23;;;;;;;13.2;11;;;;;;;19.46;26.80273;931.3833;;;;
2020/04/02 11:27:48;;;;;;;15.9;11.2;;;;;;;19.27;26.04492;931.3197;;;;
2020/04/02 11:30:13;;;;;;;12.8;11.3;;;;;;;19.45;26.04395;931.3547;;;;
2020/04/02 11:32:38;;;;;;;13.1;11.2;;;;;;;19.03;26.79883;931.2673;;;;
2020/04/02 11:35:03;;;;;;;13.6;11.2;;;;;;;18.59;26.63281;931.2719;;;;
2020/04/02 11:37:28;;;;;;;14.7;10.9;;;;;;;19.06;27.34863;931.1692;;;;
2020/04/02 11:39:53;;;;;;;13.1;11.2;;;;;;;18.87;27.0918;931.2224;;;;
2020/04/02 11:42:22;;;;;;;12.3;10.5;;;;;;;19.16;26.29492;931.0697;;;;
2020/04/02 11:44:44;;;;;;;15.3;10.8;;;;;;;19.65;27.29199;931.1567;;;;
2020/04/02 11:47:09;;;;;;;13.1;10.9;;;;;;;20.6;25.04883;931.1285;;;;
2020/04/02 11:49:34;;;;;;;15.3;11.2;;;;;;;20.7;24.36523;931.0858;;;;
2020/04/02 11:51:59;;;;;;;12.5;10.3;;;;;;;20.15;25.89844;931.0833;;;;
2020/04/02 11:54:24;;;;;;;15.5;10.8;;;;;;;20.22;24.93359;930.9917;;;;
2020/04/02 11:56:49;;;;;;;14.4;11.1;;;;;;;19.55;27.29785;930.9961;;;;
2020/04/02 11:59:14;;;;;;;14.8;11.6;;;;;;;20.45;25.47266;930.8766;;;;
2020/04/02 12:01:40;;;;;;;14.4;10.9;;;;;;;20.3;25.66211;930.8835;;;;
2020/04/02 12:04:04;;;;;;;14.5;10.9;;;;;;;20.03;26.08984;930.8737;;;;
2020/04/02 12:06:31;;;;;;;14.7;11.4;;;;;;;20.02;26.07813;930.9306;;;;
2020/04/02 12:08:55;;;;;;;15.6;11.3;;;;;;;19.27;27.26855;930.8458;;;;
2020/04/02 12:11:20;;;;;;;13.5;11.7;;;;;;;19.65;26.12598;930.7988;;;;
2020/04/02 12:13:45;;;;;;;15.1;11;;;;;;;20.25;25.6123;930.6869;;;;
2020/04/02 12:16:10;;;;;;;12.7;10.6;;;;;;;20.18;26.54297;930.7344;;;;
2020/04/02 12:18:35;;;;;;;12.6;11;;;;;;;20.42;25.59863;930.6724;;;;
2020/04/02 12:21:00;;;;;;;14.3;11.3;;;;;;;21.38;23.65332;930.6591;;;;
2020/04/02 12:23:26;;;;;;;14.6;11.2;;;;;;;20.86;24.98145;930.5931;;;;
2020/04/02 12:25:50;;;;;;;14.1;11.5;;;;;;;20.27;26.34961;930.5269;;;;
2020/04/02 12:28:15;;;;;;;14;11.8;;;;;;;20.24;26.30078;930.5149;;;;
2020/04/02 12:30:41;;;;;;;13.2;11.1;;;;;;;20.37;26.6123;930.572;;;;
2020/04/02 12:33:05;;;;;;;13.3;10.8;;;;;;;20.3;26.36328;930.4533;;;;
2020/04/02 12:35:31;;;;;;;15.1;11.3;;;;;;;20.23;26.46387;930.4781;;;;
2020/04/02 12:37:56;;;;;;;14.5;11.7;;;;;;;18.92;27.94531;930.3652;;;;
2020/04/02 12:40:22;;;;;;;16.9;11.6;;;;;;;19.28;26.94238;930.4441;;;;
2020/04/02 12:42:46;;;;;;;14.3;10.6;;;;;;;19.67;27.50293;930.4361;;;;
2020/04/02 12:45:12;;;;;;;14.7;11;;;;;;;19.44;26.44043;930.3851;;;;
2020/04/02 12:47:37;;;;;;;15.6;10.8;;;;;;;19.55;26.19043;930.3533;;;;
2020/04/02 12:50:02;;;;;;;14.3;11.5;;;;;;;19.49;26.88477;930.3432;;;;
2020/04/02 12:52:28;;;;;;;13.8;11.5;;;;;;;18.66;28.40527;930.3127;;;;
2020/04/02 12:54:52;;;;;;;14.8;11.3;;;;;;;18.48;29.56836;930.3491;;;;
2020/04/02 12:57:18;;;;;;;14.3;11.5;;;;;;;18.28;29.27539;930.3441;;;;
2020/04/02 12:59:43;;;;;;;15.3;11.1;;;;;;;18.39;27.66699;930.3565;;;;
2020/04/02 13:02:08;;;;;;;15;11.2;;;;;;;19.32;26.86328;930.2555;;;;
2020/04/02 13:04:33;;;;;;;14.2;11;;;;;;;19.63;27.81445;930.1622;;;;
2020/04/02 13:06:58;;;;;;;13.6;11.4;;;;;;;19.5;28.36621;930.2216;;;;
2020/04/02 13:09:23;;;;;;;14.1;11.7;;;;;;;18.97;28.07617;930.2811;;;;
2020/04/02 13:11:48;;;;;;;15.5;11.1;;;;;;;20.32;25.06836;930.1647;;;;
2020/04/02 13:14:13;;;;;;;14.7;11;;;;;;;21.41;24.59082;930.2292;;;;
2020/04/02 13:16:38;;;;;;;12.9;10.9;;;;;;;21.83;24.38086;930.1806;;;;
2020/04/02 13:19:04;;;;;;;14.2;11.1;;;;;;;20.52;26.06055;930.2073;;;;
2020/04/02 13:21:29;;;;;;;13.1;11.1;;;;;;;21.34;24.25977;930.1642;;;;
2020/04/02 13:23:54;;;;;;;21.6;11.2;;;;;;;20.15;26.56348;930.139;;;;
2020/04/02 13:26:19;;;;;;;12.4;10.8;;;;;;;20.3;25.61523;930.22;;;;
2020/04/02 13:29:01;;;;;;;13.6;11.2;;;;;;;19.62;27.1377;930.1576;;;;
2020/04/02 13:31:11;;;;;;;12.4;10.5;;;;;;;18.66;26.47461;930.1426;;;;
2020/04/02 13:33:35;;;;;;;13.9;11.3;;;;;;;18.47;29.0791;930.1228;;;;
2020/04/02 13:36:00;;;;;;;13.3;11.5;;;;;;;18.56;27.93359;930.1019;;;;
2020/04/02 13:38:25;;;;;;;14.6;11.4;;;;;;;18.4;28.74902;930.1786;;;;
2020/04/02 13:40:50;;;;;;;13.7;11.2;;;;;;;18.77;27.43457;930.1456;;;;
2020/04/02 13:43:15;;;;;;;14.9;11.3;;;;;;;18.27;29.40332;930.0831;;;;
2020/04/02 13:45:40;;;;;;;14.8;11.3;;;;;;;17.82;30.18555;930.0447;;;;
2020/04/02 13:48:05;;;;;;;18.3;11.9;;;;;;;17.69;30.25781;930.1277;;;;
2020/04/02 13:50:30;;;;;;;14.4;12.6;;;;;;;17.14;31.47266;930.0463;;;;
2020/04/02 13:52:55;;;;;;;15.6;12.1;;;;;;;16.57;32.0332;929.9501;;;;
2020/04/02 13:55:20;;;;;;;14.6;11.7;;;;;;;16.31;31.97949;930;;;;
2020/04/02 13:57:45;;;;;;;15.9;12.2;;;;;;;15.92;33.98535;929.9883;;;;
2020/04/02 14:00:10;;;;;;;15.4;12.2;;;;;;;15.92;32.29785;930.0059;;;;
2020/04/02 14:02:36;;;;;;;14.4;12.3;;;;;;;15.78;33.32715;930.0219;;;;